sensor_id;sensor_type;location;lat;lon;timestamp;pressure;altitude;pressure_sealevel;temperature;humidity
30967;BME280;17649;51.836;8.330;2023-04-15T00:02:26;100319.94;;;7.02;nan
30967;BME280;17649;51.836;8.330;2023-04-15T00:05:28;100318.38;;;6.98;nan
30967;BME280;17649;51.836;8.330;2023-04-15T00:08:29;100312.69;;;6.91;nan
30967;BME280;17649;51.836;8.330;2023-04-15T00:11:30;100312.63;;;6.93;nan
30967;BME280;17649;51.836;8.330;2023-04-15T00:14:30;100313.31;;;6.96;nan
30967;BME280;17649;51.836;8.330;2023-04-15T00:17:31;100316.22;;;6.88;nan
30967;BME280;17649;51.836;8.330;2023-04-15T00:20:31;100317.22;;;6.86;nan
30967;BME280;17649;51.836;8.330;2023-04-15T00:23:31;100309.34;;;6.70;nan
30967;BME280;17649;51.836;8.330;2023-04-15T00:26:32;100316.41;;;6.65;nan
30967;BME280;17649;51.836;8.330;2023-04-15T00:29:33;100305.28;;;6.65;nan
30967;BME280;17649;51.836;8.330;2023-04-15T00:32:33;100303.59;;;6.45;nan
30967;BME280;17649;51.836;8.330;2023-04-15T00:35:35;100299.34;;;6.44;nan
30967;BME280;17649;51.836;8.330;2023-04-15T00:38:37;100307.19;;;6.41;nan
30967;BME280;17649;51.836;8.330;2023-04-15T00:41:37;100308.19;;;6.37;nan
30967;BME280;17649;51.836;8.330;2023-04-15T00:44:39;100303.28;;;6.32;nan
30967;BME280;17649;51.836;8.330;2023-04-15T00:47:40;100300.25;;;6.22;nan
30967;BME280;17649;51.836;8.330;2023-04-15T00:50:43;100304.38;;;6.26;nan
30967;BME280;17649;51.836;8.330;2023-04-15T00:53:43;100315.28;;;6.32;nan
30967;BME280;17649;51.836;8.330;2023-04-15T00:56:44;100309.81;;;6.39;nan
30967;BME280;17649;51.836;8.330;2023-04-15T00:59:45;100302.56;;;6.28;nan
30967;BME280;17649;51.836;8.330;2023-04-15T01:02:45;100306.34;;;6.00;nan
30967;BME280;17649;51.836;8.330;2023-04-15T01:05:46;100300.78;;;6.10;nan
30967;BME280;17649;51.836;8.330;2023-04-15T01:08:47;100296.34;;;6.14;nan
30967;BME280;17649;51.836;8.330;2023-04-15T01:11:47;100299.34;;;6.23;nan
30967;BME280;17649;51.836;8.330;2023-04-15T01:14:47;100296.66;;;6.26;nan
30967;BME280;17649;51.836;8.330;2023-04-15T01:17:48;100296.78;;;6.23;nan
30967;BME280;17649;51.836;8.330;2023-04-15T01:20:49;100300.84;;;6.29;nan
30967;BME280;17649;51.836;8.330;2023-04-15T01:23:49;100300.75;;;6.31;nan
30967;BME280;17649;51.836;8.330;2023-04-15T01:26:52;100300.00;;;6.28;nan
30967;BME280;17649;51.836;8.330;2023-04-15T01:29:53;100298.13;;;6.32;nan
30967;BME280;17649;51.836;8.330;2023-04-15T01:32:53;100298.50;;;6.23;nan
30967;BME280;17649;51.836;8.330;2023-04-15T01:35:54;100311.16;;;6.07;nan
30967;BME280;17649;51.836;8.330;2023-04-15T01:38:55;100304.19;;;5.89;nan
30967;BME280;17649;51.836;8.330;2023-04-15T01:41:56;100304.03;;;5.72;nan
30967;BME280;17649;51.836;8.330;2023-04-15T01:44:57;100305.44;;;5.79;nan
30967;BME280;17649;51.836;8.330;2023-04-15T01:47:57;100312.13;;;5.83;nan
30967;BME280;17649;51.836;8.330;2023-04-15T01:50:58;100309.50;;;5.62;nan
30967;BME280;17649;51.836;8.330;2023-04-15T01:53:58;100313.69;;;5.65;nan
30967;BME280;17649;51.836;8.330;2023-04-15T01:56:59;100315.19;;;5.71;nan
30967;BME280;17649;51.836;8.330;2023-04-15T01:59:59;100314.72;;;5.83;nan
30967;BME280;17649;51.836;8.330;2023-04-15T02:03:00;100333.09;;;5.94;nan
30967;BME280;17649;51.836;8.330;2023-04-15T02:06:00;100328.84;;;5.93;nan
30967;BME280;17649;51.836;8.330;2023-04-15T02:09:00;100339.91;;;5.95;nan
30967;BME280;17649;51.836;8.330;2023-04-15T02:12:01;100335.50;;;5.98;nan
30967;BME280;17649;51.836;8.330;2023-04-15T02:15:01;100333.69;;;6.01;nan
30967;BME280;17649;51.836;8.330;2023-04-15T02:18:01;100327.97;;;5.94;nan
30967;BME280;17649;51.836;8.330;2023-04-15T02:21:02;100338.13;;;5.97;nan
30967;BME280;17649;51.836;8.330;2023-04-15T02:24:05;100337.16;;;6.00;nan
30967;BME280;17649;51.836;8.330;2023-04-15T02:27:05;100341.59;;;5.96;nan
30967;BME280;17649;51.836;8.330;2023-04-15T02:30:06;100339.81;;;5.98;nan
30967;BME280;17649;51.836;8.330;2023-04-15T02:33:07;100341.28;;;6.04;nan
30967;BME280;17649;51.836;8.330;2023-04-15T02:36:07;100337.03;;;6.03;nan
30967;BME280;17649;51.836;8.330;2023-04-15T02:39:09;100345.50;;;6.05;nan
30967;BME280;17649;51.836;8.330;2023-04-15T02:42:11;100348.00;;;6.06;nan
30967;BME280;17649;51.836;8.330;2023-04-15T02:45:12;100348.84;;;6.07;nan
30967;BME280;17649;51.836;8.330;2023-04-15T02:48:13;100356.88;;;5.99;nan
30967;BME280;17649;51.836;8.330;2023-04-15T02:51:17;100353.59;;;5.95;nan
30967;BME280;17649;51.836;8.330;2023-04-15T02:54:19;100348.63;;;5.91;nan
30967;BME280;17649;51.836;8.330;2023-04-15T02:57:19;100353.66;;;5.94;nan
30967;BME280;17649;51.836;8.330;2023-04-15T03:00:20;100353.03;;;5.87;nan
30967;BME280;17649;51.836;8.330;2023-04-15T03:03:20;100360.50;;;5.93;nan
30967;BME280;17649;51.836;8.330;2023-04-15T03:06:21;100352.03;;;5.91;nan
30967;BME280;17649;51.836;8.330;2023-04-15T03:09:21;100350.31;;;5.92;nan
30967;BME280;17649;51.836;8.330;2023-04-15T03:12:22;100350.84;;;6.00;nan
30967;BME280;17649;51.836;8.330;2023-04-15T03:15:22;100353.59;;;5.95;nan
30967;BME280;17649;51.836;8.330;2023-04-15T03:18:22;100354.31;;;5.99;nan
30967;BME280;17649;51.836;8.330;2023-04-15T03:21:23;100345.94;;;5.94;nan
30967;BME280;17649;51.836;8.330;2023-04-15T03:24:23;100343.72;;;5.85;nan
30967;BME280;17649;51.836;8.330;2023-04-15T03:27:24;100346.16;;;5.88;nan
30967;BME280;17649;51.836;8.330;2023-04-15T03:30:24;100342.00;;;5.85;nan
30967;BME280;17649;51.836;8.330;2023-04-15T03:33:25;100342.53;;;5.93;nan
30967;BME280;17649;51.836;8.330;2023-04-15T03:36:28;100341.59;;;5.96;nan
30967;BME280;17649;51.836;8.330;2023-04-15T03:39:29;100345.50;;;6.05;nan
30967;BME280;17649;51.836;8.330;2023-04-15T03:42:29;100357.59;;;6.03;nan
30967;BME280;17649;51.836;8.330;2023-04-15T03:45:30;100348.91;;;6.05;nan
30967;BME280;17649;51.836;8.330;2023-04-15T03:48:30;100344.09;;;5.97;nan
30967;BME280;17649;51.836;8.330;2023-04-15T03:51:30;100343.38;;;5.94;nan
30967;BME280;17649;51.836;8.330;2023-04-15T03:54:31;100341.69;;;5.93;nan
30967;BME280;17649;51.836;8.330;2023-04-15T03:57:31;100346.34;;;5.83;nan
30967;BME280;17649;51.836;8.330;2023-04-15T04:00:37;100347.41;;;5.78;nan
30967;BME280;17649;51.836;8.330;2023-04-15T04:03:37;100350.31;;;5.70;nan
30967;BME280;17649;51.836;8.330;2023-04-15T04:06:38;100365.09;;;5.63;nan
30967;BME280;17649;51.836;8.330;2023-04-15T04:09:38;100362.72;;;5.59;nan
30967;BME280;17649;51.836;8.330;2023-04-15T04:12:40;100366.66;;;5.67;nan
30967;BME280;17649;51.836;8.330;2023-04-15T04:15:41;100356.63;;;5.61;nan
30967;BME280;17649;51.836;8.330;2023-04-15T04:18:41;100364.56;;;5.55;nan
30967;BME280;17649;51.836;8.330;2023-04-15T04:21:41;100370.66;;;5.53;nan
30967;BME280;17649;51.836;8.330;2023-04-15T04:24:42;100361.88;;;5.58;nan
30967;BME280;17649;51.836;8.330;2023-04-15T04:27:42;100372.13;;;5.58;nan
30967;BME280;17649;51.836;8.330;2023-04-15T04:30:44;100369.56;;;5.58;nan
30967;BME280;17649;51.836;8.330;2023-04-15T04:33:44;100378.59;;;5.68;nan
30967;BME280;17649;51.836;8.330;2023-04-15T04:36:45;100371.03;;;5.65;nan
30967;BME280;17649;51.836;8.330;2023-04-15T04:39:45;100375.66;;;5.56;nan
30967;BME280;17649;51.836;8.330;2023-04-15T04:42:46;100373.59;;;5.65;nan
30967;BME280;17649;51.836;8.330;2023-04-15T04:45:46;100378.47;;;5.72;nan
30967;BME280;17649;51.836;8.330;2023-04-15T04:48:47;100380.69;;;5.81;nan
30967;BME280;17649;51.836;8.330;2023-04-15T04:51:47;100378.78;;;5.86;nan
30967;BME280;17649;51.836;8.330;2023-04-15T04:54:48;100387.69;;;5.99;nan
30967;BME280;17649;51.836;8.330;2023-04-15T04:57:48;100384.38;;;6.17;nan
30967;BME280;17649;51.836;8.330;2023-04-15T05:00:48;100388.78;;;6.36;nan
30967;BME280;17649;51.836;8.330;2023-04-15T05:03:49;100389.31;;;6.44;nan
30967;BME280;17649;51.836;8.330;2023-04-15T05:06:49;100385.84;;;6.45;nan
30967;BME280;17649;51.836;8.330;2023-04-15T05:09:50;100391.59;;;6.50;nan
30967;BME280;17649;51.836;8.330;2023-04-15T05:12:50;100394.78;;;6.56;nan
30967;BME280;17649;51.836;8.330;2023-04-15T05:15:51;100388.53;;;6.62;nan
30967;BME280;17649;51.836;8.330;2023-04-15T05:18:52;100385.75;;;6.67;nan
30967;BME280;17649;51.836;8.330;2023-04-15T05:21:52;100386.47;;;6.70;nan
30967;BME280;17649;51.836;8.330;2023-04-15T05:24:53;100390.38;;;6.79;nan
30967;BME280;17649;51.836;8.330;2023-04-15T05:27:53;100389.91;;;6.90;nan
30967;BME280;17649;51.836;8.330;2023-04-15T05:30:54;100394.72;;;6.97;nan
30967;BME280;17649;51.836;8.330;2023-04-15T05:33:54;100397.72;;;7.07;nan
30967;BME280;17649;51.836;8.330;2023-04-15T05:36:54;100396.53;;;7.14;nan
30967;BME280;17649;51.836;8.330;2023-04-15T05:39:55;100406.19;;;7.29;nan
30967;BME280;17649;51.836;8.330;2023-04-15T05:42:56;100407.72;;;7.33;nan
30967;BME280;17649;51.836;8.330;2023-04-15T05:45:56;100404.38;;;7.50;nan
30967;BME280;17649;51.836;8.330;2023-04-15T05:48:56;100410.28;;;7.52;nan
30967;BME280;17649;51.836;8.330;2023-04-15T05:51:58;100409.03;;;7.61;nan
30967;BME280;17649;51.836;8.330;2023-04-15T05:54:58;100412.03;;;7.52;nan
30967;BME280;17649;51.836;8.330;2023-04-15T05:57:59;100413.31;;;7.79;nan
30967;BME280;17649;51.836;8.330;2023-04-15T06:00:59;100415.03;;;7.97;nan
30967;BME280;17649;51.836;8.330;2023-04-15T06:04:00;100418.50;;;7.96;nan
30967;BME280;17649;51.836;8.330;2023-04-15T06:07:00;100415.81;;;8.17;nan
30967;BME280;17649;51.836;8.330;2023-04-15T06:10:02;100423.09;;;8.26;nan
30967;BME280;17649;51.836;8.330;2023-04-15T06:13:03;100426.19;;;8.15;nan
30967;BME280;17649;51.836;8.330;2023-04-15T06:16:03;100426.13;;;8.17;nan
30967;BME280;17649;51.836;8.330;2023-04-15T06:19:03;100424.38;;;8.36;nan
30967;BME280;17649;51.836;8.330;2023-04-15T06:22:04;100426.56;;;8.44;nan
30967;BME280;17649;51.836;8.330;2023-04-15T06:25:06;100428.78;;;8.51;nan
30967;BME280;17649;51.836;8.330;2023-04-15T06:28:10;100425.13;;;8.55;nan
30967;BME280;17649;51.836;8.330;2023-04-15T06:31:10;100433.00;;;8.87;nan
30967;BME280;17649;51.836;8.330;2023-04-15T06:34:10;100432.56;;;8.79;nan
30967;BME280;17649;51.836;8.330;2023-04-15T06:37:11;100422.16;;;9.13;nan
30967;BME280;17649;51.836;8.330;2023-04-15T06:40:15;100418.91;;;9.10;nan
30967;BME280;17649;51.836;8.330;2023-04-15T06:43:16;100415.38;;;9.44;nan
30967;BME280;17649;51.836;8.330;2023-04-15T06:46:16;100426.13;;;9.52;nan
30967;BME280;17649;51.836;8.330;2023-04-15T06:49:16;100424.53;;;9.97;nan
30967;BME280;17649;51.836;8.330;2023-04-15T06:52:17;100421.28;;;10.55;nan
30967;BME280;17649;51.836;8.330;2023-04-15T06:55:19;100426.59;;;10.37;nan
30967;BME280;17649;51.836;8.330;2023-04-15T06:58:19;100422.75;;;9.83;nan
30967;BME280;17649;51.836;8.330;2023-04-15T07:01:19;100428.47;;;10.04;nan
30967;BME280;17649;51.836;8.330;2023-04-15T07:04:20;100428.22;;;9.77;nan
30967;BME280;17649;51.836;8.330;2023-04-15T07:07:20;100423.66;;;9.98;nan
30967;BME280;17649;51.836;8.330;2023-04-15T07:10:21;100424.94;;;10.05;nan
30967;BME280;17649;51.836;8.330;2023-04-15T07:13:21;100420.56;;;9.91;nan
30967;BME280;17649;51.836;8.330;2023-04-15T07:16:21;100425.81;;;9.58;nan
30967;BME280;17649;51.836;8.330;2023-04-15T07:19:22;100429.13;;;9.60;nan
30967;BME280;17649;51.836;8.330;2023-04-15T07:22:22;100423.31;;;9.56;nan
30967;BME280;17649;51.836;8.330;2023-04-15T07:25:23;100434.47;;;9.41;nan
30967;BME280;17649;51.836;8.330;2023-04-15T07:28:23;100435.28;;;9.26;nan
30967;BME280;17649;51.836;8.330;2023-04-15T07:31:23;100433.09;;;9.34;nan
30967;BME280;17649;51.836;8.330;2023-04-15T07:34:24;100437.16;;;9.71;nan
30967;BME280;17649;51.836;8.330;2023-04-15T07:37:24;100436.91;;;9.76;nan
30967;BME280;17649;51.836;8.330;2023-04-15T07:40:25;100440.81;;;9.99;nan
30967;BME280;17649;51.836;8.330;2023-04-15T07:43:26;100445.78;;;10.18;nan
30967;BME280;17649;51.836;8.330;2023-04-15T07:46:26;100446.97;;;10.12;nan
30967;BME280;17649;51.836;8.330;2023-04-15T07:49:27;100454.63;;;10.45;nan
30967;BME280;17649;51.836;8.330;2023-04-15T07:52:27;100448.22;;;10.81;nan
30967;BME280;17649;51.836;8.330;2023-04-15T07:55:28;100452.16;;;10.58;nan
30967;BME280;17649;51.836;8.330;2023-04-15T07:58:29;100450.13;;;10.33;nan
30967;BME280;17649;51.836;8.330;2023-04-15T08:01:30;100452.56;;;10.04;nan
30967;BME280;17649;51.836;8.330;2023-04-15T08:04:30;100457.06;;;10.01;nan
30967;BME280;17649;51.836;8.330;2023-04-15T08:07:31;100460.50;;;9.85;nan
30967;BME280;17649;51.836;8.330;2023-04-15T08:10:31;100469.81;;;9.72;nan
30967;BME280;17649;51.836;8.330;2023-04-15T08:13:32;100468.66;;;9.78;nan
30967;BME280;17649;51.836;8.330;2023-04-15T08:16:32;100470.91;;;9.84;nan
30967;BME280;17649;51.836;8.330;2023-04-15T08:19:33;100476.28;;;9.48;nan
30967;BME280;17649;51.836;8.330;2023-04-15T08:22:33;100462.72;;;9.60;nan
30967;BME280;17649;51.836;8.330;2023-04-15T08:25:33;100471.41;;;9.26;nan
30967;BME280;17649;51.836;8.330;2023-04-15T08:28:34;100476.84;;;9.37;nan
30967;BME280;17649;51.836;8.330;2023-04-15T08:31:34;100473.94;;;9.43;nan
30967;BME280;17649;51.836;8.330;2023-04-15T08:34:35;100479.78;;;9.47;nan
30967;BME280;17649;51.836;8.330;2023-04-15T08:37:35;100479.66;;;9.33;nan
30967;BME280;17649;51.836;8.330;2023-04-15T08:40:43;100485.78;;;9.14;nan
30967;BME280;17649;51.836;8.330;2023-04-15T08:43:57;100486.03;;;9.43;nan
30967;BME280;17649;51.836;8.330;2023-04-15T08:47:01;100481.31;;;9.67;nan
30967;BME280;17649;51.836;8.330;2023-04-15T08:50:02;100481.56;;;9.62;nan
30967;BME280;17649;51.836;8.330;2023-04-15T08:53:03;100495.00;;;9.84;nan
30967;BME280;17649;51.836;8.330;2023-04-15T08:56:06;100492.81;;;9.61;nan
30967;BME280;17649;51.836;8.330;2023-04-15T08:59:09;100492.94;;;9.42;nan
30967;BME280;17649;51.836;8.330;2023-04-15T09:02:10;100495.31;;;9.63;nan
30967;BME280;17649;51.836;8.330;2023-04-15T09:05:11;100490.38;;;9.42;nan
30967;BME280;17649;51.836;8.330;2023-04-15T09:08:11;100497.56;;;9.53;nan
30967;BME280;17649;51.836;8.330;2023-04-15T09:11:12;100504.63;;;9.65;nan
30967;BME280;17649;51.836;8.330;2023-04-15T09:14:12;100505.94;;;9.41;nan
30967;BME280;17649;51.836;8.330;2023-04-15T09:17:17;100502.00;;;9.34;nan
30967;BME280;17649;51.836;8.330;2023-04-15T09:20:18;100513.59;;;9.42;nan
30967;BME280;17649;51.836;8.330;2023-04-15T09:23:18;100506.47;;;9.63;nan
30967;BME280;17649;51.836;8.330;2023-04-15T09:26:19;100512.84;;;9.40;nan
30967;BME280;17649;51.836;8.330;2023-04-15T09:29:19;100516.84;;;9.46;nan
30967;BME280;17649;51.836;8.330;2023-04-15T09:32:20;100527.56;;;9.55;nan
30967;BME280;17649;51.836;8.330;2023-04-15T09:35:24;100520.34;;;9.94;nan
30967;BME280;17649;51.836;8.330;2023-04-15T09:38:29;100521.50;;;9.88;nan
30967;BME280;17649;51.836;8.330;2023-04-15T09:41:30;100525.75;;;9.73;nan
30967;BME280;17649;51.836;8.330;2023-04-15T09:44:30;100524.00;;;9.90;nan
30967;BME280;17649;51.836;8.330;2023-04-15T09:47:31;100529.66;;;9.80;nan
30967;BME280;17649;51.836;8.330;2023-04-15T09:50:39;100528.84;;;9.96;nan
30967;BME280;17649;51.836;8.330;2023-04-15T09:53:40;100523.44;;;10.00;nan
30967;BME280;17649;51.836;8.330;2023-04-15T09:56:40;100528.69;;;9.99;nan
30967;BME280;17649;51.836;8.330;2023-04-15T09:59:41;100526.25;;;10.11;nan
30967;BME280;17649;51.836;8.330;2023-04-15T10:02:41;100537.81;;;10.22;nan
30967;BME280;17649;51.836;8.330;2023-04-15T10:05:42;100535.38;;;10.03;nan
30967;BME280;17649;51.836;8.330;2023-04-15T10:08:43;100534.72;;;9.99;nan
30967;BME280;17649;51.836;8.330;2023-04-15T10:11:46;100530.75;;;9.76;nan
30967;BME280;17649;51.836;8.330;2023-04-15T10:14:57;100539.56;;;10.21;nan
30967;BME280;17649;51.836;8.330;2023-04-15T10:17:59;100536.97;;;10.21;nan
30967;BME280;17649;51.836;8.330;2023-04-15T10:21:00;100538.84;;;9.86;nan
30967;BME280;17649;51.836;8.330;2023-04-15T10:24:02;100537.13;;;10.18;nan
30967;BME280;17649;51.836;8.330;2023-04-15T10:27:02;100536.19;;;10.19;nan
30967;BME280;17649;51.836;8.330;2023-04-15T10:30:05;100537.50;;;9.95;nan
30967;BME280;17649;51.836;8.330;2023-04-15T10:33:08;100537.81;;;10.37;nan
30967;BME280;17649;51.836;8.330;2023-04-15T10:36:10;100532.88;;;10.17;nan
30967;BME280;17649;51.836;8.330;2023-04-15T10:42:33;100542.47;;;10.15;nan
30967;BME280;17649;51.836;8.330;2023-04-15T10:45:37;100544.53;;;10.08;nan
30967;BME280;17649;51.836;8.330;2023-04-15T10:48:37;100549.69;;;9.93;nan
30967;BME280;17649;51.836;8.330;2023-04-15T10:51:41;100553.75;;;9.81;nan
30967;BME280;17649;51.836;8.330;2023-04-15T10:54:42;100561.97;;;9.56;nan
30967;BME280;17649;51.836;8.330;2023-04-15T10:57:43;100562.56;;;9.61;nan
30967;BME280;17649;51.836;8.330;2023-04-15T11:00:49;100567.69;;;9.45;nan
30967;BME280;17649;51.836;8.330;2023-04-15T11:03:51;100565.47;;;9.55;nan
30967;BME280;17649;51.836;8.330;2023-04-15T11:07:04;100576.50;;;9.41;nan
30967;BME280;17649;51.836;8.330;2023-04-15T11:13:25;100566.38;;;9.54;nan
30967;BME280;17649;51.836;8.330;2023-04-15T11:16:27;100578.47;;;9.36;nan
30967;BME280;17649;51.836;8.330;2023-04-15T11:19:35;100576.13;;;9.32;nan
30967;BME280;17649;51.836;8.330;2023-04-15T11:22:36;100574.34;;;9.49;nan
30967;BME280;17649;51.836;8.330;2023-04-15T11:25:36;100580.44;;;9.31;nan
30967;BME280;17649;51.836;8.330;2023-04-15T11:28:41;100589.94;;;9.31;nan
30967;BME280;17649;51.836;8.330;2023-04-15T11:31:46;100596.69;;;9.50;nan
30967;BME280;17649;51.836;8.330;2023-04-15T11:34:50;100595.63;;;9.54;nan
30967;BME280;17649;51.836;8.330;2023-04-15T11:37:51;100598.09;;;9.73;nan
30967;BME280;17649;51.836;8.330;2023-04-15T11:40:52;100595.75;;;10.02;nan
30967;BME280;17649;51.836;8.330;2023-04-15T11:43:53;100600.06;;;9.85;nan
30967;BME280;17649;51.836;8.330;2023-04-15T11:46:54;100606.47;;;9.61;nan
30967;BME280;17649;51.836;8.330;2023-04-15T11:49:55;100603.31;;;9.56;nan
30967;BME280;17649;51.836;8.330;2023-04-15T11:55:57;100615.41;;;9.38;nan
30967;BME280;17649;51.836;8.330;2023-04-15T11:58:58;100623.75;;;9.43;nan
30967;BME280;17649;51.836;8.330;2023-04-15T12:01:58;100629.44;;;9.50;nan
30967;BME280;17649;51.836;8.330;2023-04-15T12:05:05;100633.38;;;9.57;nan
30967;BME280;17649;51.836;8.330;2023-04-15T12:08:06;100623.97;;;9.39;nan
30967;BME280;17649;51.836;8.330;2023-04-15T12:11:06;100630.59;;;9.27;nan
30967;BME280;17649;51.836;8.330;2023-04-15T12:14:08;100635.84;;;9.25;nan
30967;BME280;17649;51.836;8.330;2023-04-15T12:17:09;100632.53;;;9.22;nan
30967;BME280;17649;51.836;8.330;2023-04-15T12:20:10;100638.69;;;9.37;nan
30967;BME280;17649;51.836;8.330;2023-04-15T12:23:11;100644.16;;;9.48;nan
30967;BME280;17649;51.836;8.330;2023-04-15T12:26:11;100647.75;;;9.45;nan
30967;BME280;17649;51.836;8.330;2023-04-15T12:29:13;100651.00;;;9.49;nan
30967;BME280;17649;51.836;8.330;2023-04-15T12:32:15;100652.47;;;9.54;nan
30967;BME280;17649;51.836;8.330;2023-04-15T12:35:15;100658.91;;;9.46;nan
30967;BME280;17649;51.836;8.330;2023-04-15T12:38:18;100658.00;;;9.47;nan
30967;BME280;17649;51.836;8.330;2023-04-15T12:41:21;100671.06;;;9.61;nan
30967;BME280;17649;51.836;8.330;2023-04-15T12:44:23;100675.91;;;9.84;nan
30967;BME280;17649;51.836;8.330;2023-04-15T12:47:23;100675.84;;;9.69;nan
30967;BME280;17649;51.836;8.330;2023-04-15T12:50:24;100670.91;;;9.64;nan
30967;BME280;17649;51.836;8.330;2023-04-15T12:53:24;100679.72;;;9.60;nan
30967;BME280;17649;51.836;8.330;2023-04-15T12:56:25;100679.88;;;9.40;nan
30967;BME280;17649;51.836;8.330;2023-04-15T12:59:26;100677.75;;;9.48;nan
30967;BME280;17649;51.836;8.330;2023-04-15T13:02:26;100684.28;;;9.55;nan
30967;BME280;17649;51.836;8.330;2023-04-15T13:05:27;100687.31;;;9.63;nan
30967;BME280;17649;51.836;8.330;2023-04-15T13:08:28;100689.91;;;9.63;nan
30967;BME280;17649;51.836;8.330;2023-04-15T13:11:29;100691.56;;;9.64;nan
30967;BME280;17649;51.836;8.330;2023-04-15T13:14:35;100698.56;;;9.45;nan
30967;BME280;17649;51.836;8.330;2023-04-15T13:17:36;100696.28;;;9.56;nan
30967;BME280;17649;51.836;8.330;2023-04-15T13:20:37;100701.31;;;9.59;nan
30967;BME280;17649;51.836;8.330;2023-04-15T13:23:37;100700.72;;;9.54;nan
30967;BME280;17649;51.836;8.330;2023-04-15T13:26:37;100703.06;;;9.59;nan
30967;BME280;17649;51.836;8.330;2023-04-15T13:29:38;100699.25;;;9.48;nan
30967;BME280;17649;51.836;8.330;2023-04-15T13:32:39;100706.78;;;9.53;nan
30967;BME280;17649;51.836;8.330;2023-04-15T13:35:39;100706.78;;;9.53;nan
30967;BME280;17649;51.836;8.330;2023-04-15T13:38:40;100708.06;;;9.62;nan
30967;BME280;17649;51.836;8.330;2023-04-15T13:41:41;100713.69;;;9.52;nan
30967;BME280;17649;51.836;8.330;2023-04-15T13:44:41;100719.81;;;9.50;nan
30967;BME280;17649;51.836;8.330;2023-04-15T13:47:42;100717.41;;;9.64;nan
30967;BME280;17649;51.836;8.330;2023-04-15T13:50:42;100718.16;;;9.49;nan
30967;BME280;17649;51.836;8.330;2023-04-15T13:53:44;100722.72;;;9.44;nan
30967;BME280;17649;51.836;8.330;2023-04-15T13:56:44;100728.84;;;9.24;nan
30967;BME280;17649;51.836;8.330;2023-04-15T13:59:45;100729.91;;;9.37;nan
30967;BME280;17649;51.836;8.330;2023-04-15T14:02:45;100735.69;;;9.25;nan
30967;BME280;17649;51.836;8.330;2023-04-15T14:05:45;100738.81;;;9.32;nan
30967;BME280;17649;51.836;8.330;2023-04-15T14:08:46;100736.53;;;9.25;nan
30967;BME280;17649;51.836;8.330;2023-04-15T14:11:46;100742.97;;;9.34;nan
30967;BME280;17649;51.836;8.330;2023-04-15T14:14:47;100739.38;;;9.38;nan
30967;BME280;17649;51.836;8.330;2023-04-15T14:17:47;100749.72;;;9.19;nan
30967;BME280;17649;51.836;8.330;2023-04-15T14:20:47;100750.78;;;9.15;nan
30967;BME280;17649;51.836;8.330;2023-04-15T14:23:48;100758.03;;;9.26;nan
30967;BME280;17649;51.836;8.330;2023-04-15T14:26:48;100759.19;;;9.38;nan
30967;BME280;17649;51.836;8.330;2023-04-15T14:29:48;100769.34;;;9.23;nan
30967;BME280;17649;51.836;8.330;2023-04-15T14:32:49;100781.53;;;9.39;nan
30967;BME280;17649;51.836;8.330;2023-04-15T14:35:50;100772.88;;;9.21;nan
30967;BME280;17649;51.836;8.330;2023-04-15T14:38:50;100784.56;;;9.47;nan
30967;BME280;17649;51.836;8.330;2023-04-15T14:41:50;100795.91;;;9.25;nan
30967;BME280;17649;51.836;8.330;2023-04-15T14:44:51;100795.56;;;9.14;nan
30967;BME280;17649;51.836;8.330;2023-04-15T14:47:51;100795.34;;;9.19;nan
30967;BME280;17649;51.836;8.330;2023-04-15T14:50:52;100801.06;;;9.25;nan
30967;BME280;17649;51.836;8.330;2023-04-15T14:53:53;100808.72;;;9.46;nan
30967;BME280;17649;51.836;8.330;2023-04-15T14:56:53;100799.72;;;9.36;nan
30967;BME280;17649;51.836;8.330;2023-04-15T14:59:53;100805.72;;;9.36;nan
30967;BME280;17649;51.836;8.330;2023-04-15T15:02:55;100812.22;;;9.45;nan
30967;BME280;17649;51.836;8.330;2023-04-15T15:05:56;100823.25;;;9.30;nan
30967;BME280;17649;51.836;8.330;2023-04-15T15:08:59;100819.47;;;9.37;nan
30967;BME280;17649;51.836;8.330;2023-04-15T15:12:00;100825.50;;;9.18;nan
30967;BME280;17649;51.836;8.330;2023-04-15T15:15:02;100826.78;;;9.46;nan
30967;BME280;17649;51.836;8.330;2023-04-15T15:18:03;100832.59;;;9.32;nan
30967;BME280;17649;51.836;8.330;2023-04-15T15:21:06;100834.28;;;9.14;nan
30967;BME280;17649;51.836;8.330;2023-04-15T15:24:06;100846.56;;;9.28;nan
30967;BME280;17649;51.836;8.330;2023-04-15T15:27:07;100842.38;;;9.25;nan
30967;BME280;17649;51.836;8.330;2023-04-15T15:30:08;100856.03;;;9.46;nan
30967;BME280;17649;51.836;8.330;2023-04-15T15:33:08;100853.00;;;9.74;nan
30967;BME280;17649;51.836;8.330;2023-04-15T15:36:09;100845.94;;;9.42;nan
30967;BME280;17649;51.836;8.330;2023-04-15T15:39:10;100854.16;;;9.31;nan
30967;BME280;17649;51.836;8.330;2023-04-15T15:42:10;100857.88;;;9.44;nan
30967;BME280;17649;51.836;8.330;2023-04-15T15:45:11;100864.38;;;9.53;nan
30967;BME280;17649;51.836;8.330;2023-04-15T15:48:11;100867.47;;;9.60;nan
30967;BME280;17649;51.836;8.330;2023-04-15T15:51:11;100869.44;;;9.54;nan
30967;BME280;17649;51.836;8.330;2023-04-15T15:54:12;100874.63;;;9.54;nan
30967;BME280;17649;51.836;8.330;2023-04-15T15:57:12;100872.72;;;9.58;nan
30967;BME280;17649;51.836;8.330;2023-04-15T16:00:13;100885.34;;;9.64;nan
30967;BME280;17649;51.836;8.330;2023-04-15T16:03:14;100884.66;;;9.61;nan
30967;BME280;17649;51.836;8.330;2023-04-15T16:06:14;100883.16;;;9.74;nan
30967;BME280;17649;51.836;8.330;2023-04-15T16:09:16;100887.84;;;9.66;nan
30967;BME280;17649;51.836;8.330;2023-04-15T16:12:16;100891.06;;;9.71;nan
30967;BME280;17649;51.836;8.330;2023-04-15T16:15:17;100898.97;;;9.49;nan
30967;BME280;17649;51.836;8.330;2023-04-15T16:18:17;100909.94;;;9.54;nan
30967;BME280;17649;51.836;8.330;2023-04-15T16:21:18;100899.31;;;9.60;nan
30967;BME280;17649;51.836;8.330;2023-04-15T16:24:19;100905.03;;;9.67;nan
30967;BME280;17649;51.836;8.330;2023-04-15T16:27:19;100907.81;;;9.62;nan
30967;BME280;17649;51.836;8.330;2023-04-15T16:30:20;100912.28;;;9.77;nan
30967;BME280;17649;51.836;8.330;2023-04-15T16:33:20;100911.44;;;9.77;nan